Time;durP1;ratioP1;P1;durP2;ratioP2;P2;SDS_P1;SDS_P2;PMS_P1;PMS_P2;Temp;Humidity;BMP_temperature;BMP_pressure;BME280_temperature;BME280_humidity;BME280_pressure;Samples;Min_cycle;Max_cycle;Signal;HPM_P1;HPM_P2
2022/12/25 00:00:23;;;;;;;23.90;14.70;;;;;;;5.42;100.00;99115.08;105765;1288;59000;-70
2022/12/25 00:03:08;;;;;;;23.20;16.30;;;;;;;5.37;100.00;99114.26;105866;1289;58968;-70
2022/12/25 00:05:38;;;;;;;27.60;16.60;;;;;;;5.33;100.00;99113.91;106081;1281;58889;-70
2022/12/25 00:08:04;;;;;;;26.60;19.40;;;;;;;5.31;100.00;99120.02;106063;1288;65712;-70
2022/12/25 00:10:30;;;;;;;33.10;20.60;;;;;;;5.28;100.00;99122.59;106019;1282;58803;-70
2022/12/25 00:12:56;;;;;;;32.80;22.80;;;;;;;5.24;100.00;99125.93;106074;1281;58947;-70
2022/12/25 00:15:22;;;;;;;30.80;20.60;;;;;;;5.17;100.00;99125.89;106057;1283;58973;-70
2022/12/25 00:17:48;;;;;;;34.40;20.50;;;;;;;5.08;100.00;99122.73;106076;1288;58921;-70
2022/12/25 00:20:14;;;;;;;34.10;20.30;;;;;;;5.00;100.00;99127.30;106050;1289;59045;-70
2022/12/25 00:22:40;;;;;;;35.80;23.90;;;;;;;4.92;100.00;99135.41;106081;1288;58893;-70
2022/12/25 00:25:07;;;;;;;40.20;28.40;;;;;;;4.84;100.00;99141.17;106057;1285;59044;-70
2022/12/25 00:27:36;;;;;;;34.90;26.70;;;;;;;4.78;100.00;99137.37;106088;1282;58819;-70
2022/12/25 00:30:06;;;;;;;42.80;29.90;;;;;;;4.74;100.00;99133.84;106074;1288;58926;-70
2022/12/25 00:32:36;;;;;;;38.00;30.70;;;;;;;4.72;100.00;99137.65;106049;1287;65897;-70
2022/12/25 00:35:07;;;;;;;38.50;28.90;;;;;;;4.69;100.00;99144.27;106079;1288;60851;-70
2022/12/25 00:37:33;;;;;;;37.70;24.50;;;;;;;4.67;100.00;99152.27;106055;1288;65053;-70
2022/12/25 00:39:59;;;;;;;33.50;21.60;;;;;;;4.64;100.00;99151.86;105843;1292;59313;-70
2022/12/25 00:42:27;;;;;;;27.80;20.10;;;;;;;4.61;100.00;99154.77;105893;1292;59037;-70
2022/12/25 00:44:53;;;;;;;30.70;19.80;;;;;;;4.60;100.00;99164.32;106077;1282;58939;-70
2022/12/25 00:47:19;;;;;;;31.10;21.50;;;;;;;4.59;100.00;99167.36;106088;1281;58896;-70
2022/12/25 00:49:45;;;;;;;32.50;21.70;;;;;;;4.60;100.00;99173.66;106056;1288;58928;-70
2022/12/25 00:52:11;;;;;;;31.00;22.60;;;;;;;4.61;100.00;99177.31;106063;1282;58974;-70
2022/12/25 00:54:37;;;;;;;30.30;21.10;;;;;;;4.62;100.00;99182.35;106053;1284;59004;-70
2022/12/25 00:57:03;;;;;;;34.60;25.30;;;;;;;4.65;100.00;99181.40;106080;1282;58874;-70
2022/12/25 00:59:31;;;;;;;30.70;21.80;;;;;;;4.68;100.00;99180.37;106075;1288;58915;-70
2022/12/25 01:02:22;;;;;;;35.80;22.80;;;;;;;4.72;100.00;99183.73;105883;1289;59364;-70
2022/12/25 01:04:43;;;;;;;36.70;23.70;;;;;;;4.77;100.00;99190.02;106040;1288;58932;-70
2022/12/25 01:07:10;;;;;;;32.60;22.10;;;;;;;4.81;100.00;99190.40;106081;1281;58984;-70
2022/12/25 01:12:22;;;;;;;27.60;18.50;;;;;;;4.90;100.00;99197.80;105822;1289;59675;-70
2022/12/25 01:14:48;;;;;;;30.70;20.00;;;;;;;4.94;100.00;99203.61;106059;1287;58931;-70
2022/12/25 01:17:14;;;;;;;30.40;19.10;;;;;;;4.97;100.00;99209.66;106068;1281;58963;-70
2022/12/25 01:19:40;;;;;;;29.50;20.10;;;;;;;5.01;100.00;99210.91;106061;1282;58903;-70
2022/12/25 01:22:06;;;;;;;32.00;19.30;;;;;;;5.05;100.00;99211.64;106077;1289;59037;-70
2022/12/25 01:24:32;;;;;;;32.30;22.20;;;;;;;5.07;100.00;99212.59;106062;1284;58970;-71
2022/12/25 01:26:58;;;;;;;30.00;20.80;;;;;;;5.11;100.00;99218.09;106059;1288;58983;-69
2022/12/25 01:29:24;;;;;;;29.00;18.40;;;;;;;5.14;100.00;99220.93;105855;1285;59294;-69
2022/12/25 01:31:51;;;;;;;28.10;19.20;;;;;;;5.18;100.00;99227.32;106080;1288;59281;-69
2022/12/25 01:34:17;;;;;;;27.70;18.40;;;;;;;5.20;100.00;99223.52;106092;1288;59010;-69
2022/12/25 01:36:43;;;;;;;32.30;20.00;;;;;;;5.21;100.00;99218.88;106078;1288;58931;-70
2022/12/25 01:39:08;;;;;;;30.10;19.20;;;;;;;5.25;100.00;99213.27;106099;1282;59117;-69
2022/12/25 01:41:35;;;;;;;26.70;19.60;;;;;;;5.27;100.00;99212.45;105713;1287;59600;-70
2022/12/25 01:44:35;;;;;;;28.10;18.50;;;;;;;5.30;100.00;99216.21;106071;1288;59273;-70
2022/12/25 01:47:03;;;;;;;27.10;17.80;;;;;;;5.33;100.00;99221.22;106071;1289;59870;-70
2022/12/25 01:49:32;;;;;;;26.80;17.50;;;;;;;5.35;100.00;99226.97;106065;1288;64933;-70
2022/12/25 01:52:03;;;;;;;21.90;16.70;;;;;;;5.36;100.00;99228.01;106057;1288;58975;-69
2022/12/25 01:54:38;;;;;;;25.40;17.70;;;;;;;5.36;100.00;99230.77;106070;1288;58786;-70
2022/12/25 01:57:09;;;;;;;25.60;17.60;;;;;;;5.36;100.00;99231.46;105796;1294;67413;-69
2022/12/25 01:59:36;;;;;;;26.60;19.90;;;;;;;5.36;100.00;99235.87;106066;1288;59774;-70
2022/12/25 02:02:03;;;;;;;26.30;17.80;;;;;;;5.37;100.00;99243.09;106054;1288;59271;-69
2022/12/25 02:04:37;;;;;;;27.20;18.60;;;;;;;5.37;100.00;99251.71;106035;1297;58858;-69
2022/12/25 02:07:22;;;;;;;28.60;17.90;;;;;;;5.35;100.00;99249.14;106088;1288;58771;-70
2022/12/25 02:09:49;;;;;;;24.90;17.60;;;;;;;5.33;100.00;99249.74;106048;1289;67140;-70
2022/12/25 02:12:25;;;;;;;24.00;16.20;;;;;;;5.31;100.00;99253.71;106080;1288;60001;-70
2022/12/25 02:14:56;;;;;;;22.30;16.60;;;;;;;5.27;100.00;99251.77;106048;1287;65208;-69
2022/12/25 02:17:45;;;;;;;25.40;15.30;;;;;;;5.24;100.00;99251.37;106051;1288;58968;-70
2022/12/25 02:20:11;;;;;;;20.50;14.40;;;;;;;5.21;100.00;99248.51;106039;1281;58807;-69
2022/12/25 02:23:02;;;;;;;18.90;14.20;;;;;;;5.18;100.00;99249.83;106077;1281;58972;-70
2022/12/25 02:25:53;;;;;;;18.70;12.90;;;;;;;5.18;100.00;99251.79;106082;1281;60991;-70
2022/12/25 02:28:33;;;;;;;20.10;14.60;;;;;;;5.19;100.00;99254.22;106060;1287;65128;-70
2022/12/25 02:31:17;;;;;;;21.10;12.80;;;;;;;5.19;100.00;99252.30;106063;1289;58862;-70
2022/12/25 02:34:03;;;;;;;21.60;12.90;;;;;;;5.19;100.00;99252.09;106072;1289;58796;-70
2022/12/25 02:36:44;;;;;;;19.10;13.10;;;;;;;5.20;100.00;99257.16;106038;1281;67058;-70
2022/12/25 03:07:50;;;;;;;24.20;13.50;;;;;;;5.15;100.00;99259.84;106067;1287;60859;-70
2022/12/25 03:13:27;;;;;;;24.00;13.80;;;;;;;5.14;100.00;99264.99;106090;1287;59023;-69
2022/12/25 03:18:38;;;;;;;23.20;16.50;;;;;;;5.14;100.00;99250.86;106060;1288;66867;-70
2022/12/25 03:26:53;;;;;;;24.60;19.10;;;;;;;5.16;100.00;99258.73;106056;1288;59535;-69
2022/12/25 03:32:28;;;;;;;22.20;17.50;;;;;;;5.14;100.00;99263.39;105794;1281;65910;-69
2022/12/25 03:35:22;;;;;;;21.70;16.10;;;;;;;5.14;100.00;99263.58;106064;1281;60982;-69
2022/12/25 04:36:43;;;;;;;20.50;14.50;;;;;;;5.11;100.00;99320.60;106076;1288;59025;-70
2022/12/25 04:39:09;;;;;;;19.80;15.50;;;;;;;5.10;100.00;99323.78;105876;1292;58922;-70
2022/12/25 04:41:35;;;;;;;22.00;15.50;;;;;;;5.10;100.00;99327.66;106060;1282;58960;-70
2022/12/25 04:44:02;;;;;;;20.20;14.80;;;;;;;5.09;100.00;99329.11;106057;1283;58981;-70
2022/12/25 04:46:28;;;;;;;17.70;14.30;;;;;;;5.09;100.00;99326.30;106072;1281;59071;-70
2022/12/25 04:48:54;;;;;;;18.60;14.30;;;;;;;5.09;100.00;99328.58;105700;1292;58958;-70
2022/12/25 04:51:23;;;;;;;18.10;13.50;;;;;;;5.08;100.00;99332.30;106043;1280;58917;-70
2022/12/25 04:53:50;;;;;;;17.50;13.30;;;;;;;5.09;100.00;99327.02;106062;1281;65875;-70
2022/12/25 04:56:17;;;;;;;18.20;13.70;;;;;;;5.08;100.00;99328.79;106064;1288;60440;-70
2022/12/25 04:58:43;;;;;;;21.60;14.30;;;;;;;5.08;100.00;99329.67;106059;1288;64874;-70
2022/12/25 05:01:10;;;;;;;17.60;13.20;;;;;;;5.06;100.00;99331.85;106069;1288;58986;-70
2022/12/25 05:03:36;;;;;;;18.60;13.70;;;;;;;5.05;100.00;99332.43;105343;1285;1002497;-70
2022/12/25 05:06:05;;;;;;;18.80;14.80;;;;;;;5.03;100.00;99330.23;105794;1292;66770;-70
2022/12/25 05:08:32;;;;;;;19.10;15.20;;;;;;;5.02;100.00;99326.73;106066;1289;59915;-70
2022/12/25 05:10:59;;;;;;;20.50;14.00;;;;;;;5.01;100.00;99323.95;106054;1288;65082;-70
2022/12/25 05:13:25;;;;;;;18.40;13.80;;;;;;;5.02;100.00;99325.69;106062;1288;58986;-70
2022/12/25 05:15:51;;;;;;;16.70;13.40;;;;;;;5.02;100.00;99323.40;106094;1288;59085;-70
2022/12/25 05:18:17;;;;;;;18.80;14.00;;;;;;;5.02;100.00;99327.09;106078;1281;59281;-70
2022/12/25 05:20:51;;;;;;;15.80;13.00;;;;;;;5.01;100.00;99332.92;106079;1288;58951;-70
2022/12/25 05:23:17;;;;;;;17.00;13.20;;;;;;;5.02;100.00;99335.89;106033;1288;64648;-70
2022/12/25 05:25:43;;;;;;;16.50;12.80;;;;;;;5.01;100.00;99336.27;106084;1281;58882;-70
2022/12/25 05:28:09;;;;;;;17.30;11.80;;;;;;;5.01;100.00;99338.03;106076;1280;58984;-71
2022/12/25 05:30:36;;;;;;;15.60;10.30;;;;;;;5.01;100.00;99336.09;106069;1288;60025;-70
2022/12/25 05:33:02;;;;;;;16.10;12.80;;;;;;;5.02;100.00;99337.83;106075;1288;58858;-70
2022/12/25 05:35:28;;;;;;;22.00;15.60;;;;;;;5.01;100.00;99333.12;106092;1288;58817;-70
2022/12/25 05:37:55;;;;;;;15.10;13.40;;;;;;;5.00;100.00;99334.02;105918;1291;59067;-70
2022/12/25 05:40:21;;;;;;;21.70;17.00;;;;;;;4.99;100.00;99339.35;106083;1281;58979;-70
2022/12/25 05:42:48;;;;;;;19.80;12.20;;;;;;;4.99;100.00;99343.05;105956;1281;131312;-70
2022/12/25 05:45:14;;;;;;;18.20;12.00;;;;;;;4.99;100.00;99345.16;106068;1281;58879;-70
2022/12/25 05:47:40;;;;;;;19.20;13.70;;;;;;;4.98;100.00;99349.45;106058;1281;59110;-70
2022/12/25 05:50:07;;;;;;;26.40;17.90;;;;;;;4.94;100.00;99353.27;106074;1289;58934;-70
2022/12/25 05:52:33;;;;;;;28.70;18.80;;;;;;;4.90;100.00;99356.96;106019;1282;59414;-70
2022/12/25 05:55:00;;;;;;;22.90;15.00;;;;;;;4.86;100.00;99364.68;106069;1288;59016;-70
2022/12/25 05:57:29;;;;;;;22.00;13.50;;;;;;;4.82;100.00;99364.65;106080;1289;58846;-70
2022/12/25 05:59:56;;;;;;;19.90;13.70;;;;;;;4.77;100.00;99358.84;105683;1290;65169;-70
2022/12/25 06:02:23;;;;;;;20.90;13.70;;;;;;;4.73;100.00;99364.63;106090;1289;58812;-71
2022/12/25 06:04:49;;;;;;;19.70;13.40;;;;;;;4.68;100.00;99364.99;106075;1288;59316;-70
2022/12/25 06:07:16;;;;;;;18.10;13.10;;;;;;;4.61;100.00;99364.18;106072;1282;59057;-70
2022/12/25 06:09:42;;;;;;;22.20;16.70;;;;;;;4.55;100.00;99367.05;105927;1288;59774;-71
2022/12/25 06:12:08;;;;;;;23.70;18.70;;;;;;;4.47;100.00;99365.42;106072;1289;59028;-70
2022/12/25 06:14:35;;;;;;;27.20;19.60;;;;;;;4.37;100.00;99367.52;106097;1289;58836;-70
2022/12/25 06:17:01;;;;;;;26.80;22.00;;;;;;;4.27;100.00;99374.91;106060;1288;58878;-71
2022/12/25 06:19:27;;;;;;;22.20;19.60;;;;;;;4.19;100.00;99383.98;105741;1294;59117;-70
2022/12/25 06:21:54;;;;;;;22.60;19.60;;;;;;;4.11;100.00;99392.70;106098;1288;59428;-72
2022/12/25 06:24:21;;;;;;;18.60;15.80;;;;;;;4.03;100.00;99398.94;105762;1287;59083;-70
2022/12/25 06:26:47;;;;;;;18.50;14.70;;;;;;;3.97;100.00;99397.05;106090;1288;58907;-71
2022/12/25 06:29:13;;;;;;;26.80;19.10;;;;;;;3.91;100.00;99394.08;106082;1288;58943;-70
2022/12/25 06:31:40;;;;;;;27.90;21.00;;;;;;;3.84;100.00;99401.88;106079;1275;58998;-70
2022/12/25 06:34:06;;;;;;;24.90;19.40;;;;;;;3.77;100.00;99413.36;106069;1273;59009;-71
2022/12/25 06:36:31;;;;;;;22.10;16.90;;;;;;;3.70;100.00;99420.77;106047;1281;59115;-70
2022/12/25 06:39:00;;;;;;;20.70;17.00;;;;;;;3.67;100.00;99418.59;105804;1295;59400;-70
2022/12/25 06:41:28;;;;;;;20.50;14.60;;;;;;;3.64;100.00;99424.14;106072;1281;59213;-71
2022/12/25 06:43:57;;;;;;;22.60;14.80;;;;;;;3.60;100.00;99431.30;106073;1288;74747;-71
2022/12/25 06:46:26;;;;;;;17.30;14.70;;;;;;;3.57;100.00;99434.21;106057;1289;60700;-71
2022/12/25 06:48:52;;;;;;;20.60;15.60;;;;;;;3.54;100.00;99435.70;106086;1281;63845;-70
2022/12/25 06:51:21;;;;;;;18.80;14.50;;;;;;;3.51;100.00;99434.55;106053;1282;59007;-70
2022/12/25 06:53:48;;;;;;;35.10;23.20;;;;;;;3.47;100.00;99431.15;106068;1281;58919;-71
2022/12/25 06:56:17;;;;;;;32.90;24.20;;;;;;;3.42;100.00;99435.54;105709;1292;66000;-71
2022/12/25 06:58:48;;;;;;;34.90;24.90;;;;;;;3.35;100.00;99434.16;106053;1281;59874;-70
2022/12/25 07:01:24;;;;;;;36.70;24.80;;;;;;;3.27;100.00;99443.52;106085;1288;63771;-71
2022/12/25 07:03:54;;;;;;;28.60;17.70;;;;;;;3.24;100.00;99458.21;106067;1281;59296;-71
2022/12/25 07:06:21;;;;;;;25.00;16.40;;;;;;;3.23;100.00;99461.39;106079;1289;58825;-71
2022/12/25 07:08:47;;;;;;;21.10;13.60;;;;;;;3.24;100.00;99465.40;106098;1280;59308;-71
2022/12/25 07:11:13;;;;;;;21.20;14.30;;;;;;;3.26;100.00;99472.55;106079;1288;59203;-71
2022/12/25 07:13:39;;;;;;;21.00;14.10;;;;;;;3.27;100.00;99484.27;106074;1295;59100;-71
2022/12/25 07:16:06;;;;;;;22.30;15.50;;;;;;;3.29;100.00;99489.48;105922;1289;58793;-70
2022/12/25 07:18:33;;;;;;;22.30;16.60;;;;;;;3.33;100.00;99495.17;106077;1288;58987;-71
2022/12/25 07:21:08;;;;;;;25.40;18.80;;;;;;;3.38;100.00;99499.77;106064;1281;66974;-70
2022/12/25 07:23:34;;;;;;;26.00;19.80;;;;;;;3.44;100.00;99505.73;105789;1295;60920;-71
2022/12/25 07:26:04;;;;;;;25.50;18.90;;;;;;;3.50;100.00;99510.48;106061;1288;63796;-73
2022/12/25 07:28:30;;;;;;;27.60;19.40;;;;;;;3.56;100.00;99510.30;106052;1288;58871;-70
2022/12/25 07:31:01;;;;;;;20.20;16.60;;;;;;;3.61;100.00;99515.77;106056;1297;59015;-70
2022/12/25 07:33:28;;;;;;;28.00;18.90;;;;;;;3.67;100.00;99521.91;106071;1288;65785;-71
2022/12/25 07:35:54;;;;;;;25.60;19.80;;;;;;;3.74;100.00;99523.64;106066;1288;58997;-70
2022/12/25 07:38:20;;;;;;;32.10;20.30;;;;;;;3.78;100.00;99520.36;106046;1288;58974;-70
2022/12/25 07:40:46;;;;;;;31.80;20.70;;;;;;;3.82;100.00;99525.14;106046;1282;58983;-70
2022/12/25 07:43:13;;;;;;;30.50;23.30;;;;;;;3.86;100.00;99525.39;106067;1288;59105;-70
2022/12/25 07:45:39;;;;;;;33.80;27.00;;;;;;;3.90;100.00;99523.48;106070;1288;58954;-71
2022/12/25 07:48:05;;;;;;;36.00;27.20;;;;;;;3.95;100.00;99524.58;105728;1293;59216;-70
2022/12/25 07:50:32;;;;;;;30.20;23.30;;;;;;;3.98;100.00;99527.27;106037;1288;58923;-71
2022/12/25 07:52:58;;;;;;;34.10;24.10;;;;;;;4.03;100.00;99525.00;105934;1291;58896;-73
2022/12/25 07:55:32;;;;;;;30.70;22.10;;;;;;;4.07;100.00;99521.91;105741;1295;59019;-73
2022/12/25 07:58:06;;;;;;;27.10;21.40;;;;;;;4.11;100.00;99517.19;105743;1285;65494;-74
2022/12/25 08:00:32;;;;;;;31.20;21.70;;;;;;;4.15;100.00;99510.58;105781;1294;58933;-76
2022/12/25 08:02:59;;;;;;;28.40;21.80;;;;;;;4.18;100.00;99513.27;105647;1286;62919;-70
2022/12/25 08:05:25;;;;;;;32.20;22.30;;;;;;;4.23;100.00;99518.75;105821;1291;58985;-71
2022/12/25 08:07:53;;;;;;;30.80;21.90;;;;;;;4.27;100.00;99521.08;105835;1292;59229;-71
2022/12/25 08:10:19;;;;;;;31.60;21.30;;;;;;;4.32;100.00;99519.51;105810;1291;67016;-71
2022/12/25 08:12:46;;;;;;;31.90;22.20;;;;;;;4.38;100.00;99515.27;105822;1292;61602;-71
2022/12/25 08:15:13;;;;;;;32.90;23.40;;;;;;;4.43;100.00;99518.42;105831;1291;63924;-71
2022/12/25 08:17:40;;;;;;;32.90;23.70;;;;;;;4.48;100.00;99515.98;105780;1277;58944;-71
2022/12/25 08:20:06;;;;;;;34.80;23.80;;;;;;;4.53;100.00;99518.64;105741;1287;59422;-71
2022/12/25 08:22:37;;;;;;;32.00;23.90;;;;;;;4.58;100.00;99521.45;105482;1302;65855;-70
2022/12/25 08:25:06;;;;;;;29.50;22.10;;;;;;;4.64;100.00;99523.90;105757;1287;59022;-69
2022/12/25 08:27:34;;;;;;;30.30;23.70;;;;;;;4.69;100.00;99529.52;105689;1289;64910;-70
2022/12/25 08:30:00;;;;;;;32.00;24.30;;;;;;;4.75;100.00;99528.27;106055;1288;59059;-70
2022/12/25 08:32:26;;;;;;;29.30;22.80;;;;;;;4.80;100.00;99526.84;106061;1282;58895;-70
2022/12/25 08:34:52;;;;;;;32.50;24.70;;;;;;;4.87;100.00;99523.80;106076;1288;58982;-70
2022/12/25 08:37:18;;;;;;;32.90;23.80;;;;;;;4.93;100.00;99516.55;106052;1281;58894;-71
2022/12/25 08:39:44;;;;;;;34.50;23.30;;;;;;;4.97;100.00;99511.10;106061;1281;58963;-71
2022/12/25 08:42:10;;;;;;;44.40;26.00;;;;;;;5.02;100.00;99509.71;105701;1294;59303;-71
2022/12/25 08:44:36;;;;;;;42.30;27.40;;;;;;;5.08;100.00;99507.73;106071;1281;59014;-71
2022/12/25 08:47:02;;;;;;;35.80;26.00;;;;;;;5.14;100.00;99501.18;105845;1286;58960;-71
2022/12/25 08:49:28;;;;;;;35.90;22.70;;;;;;;5.19;100.00;99504.31;105706;1294;59187;-71
2022/12/25 08:51:54;;;;;;;33.40;23.10;;;;;;;5.24;100.00;99509.08;106080;1288;59019;-72
2022/12/25 08:54:21;;;;;;;36.00;23.70;;;;;;;5.30;100.00;99512.89;106060;1288;59017;-71
2022/12/25 08:56:47;;;;;;;33.60;24.10;;;;;;;5.36;100.00;99521.48;106075;1287;58926;-70
2022/12/25 08:59:12;;;;;;;32.50;24.40;;;;;;;5.42;100.00;99523.89;106101;1282;58992;-71
2022/12/25 09:01:41;;;;;;;35.10;23.90;;;;;;;5.49;100.00;99528.95;106075;1289;64949;-71
2022/12/25 09:04:07;;;;;;;36.00;25.30;;;;;;;5.55;100.00;99538.59;106068;1281;58981;-70
2022/12/25 09:06:32;;;;;;;35.20;24.50;;;;;;;5.61;100.00;99538.16;106089;1282;58816;-70
2022/12/25 09:09:00;;;;;;;37.10;24.70;;;;;;;5.67;100.00;99542.88;105720;1294;65506;-71
2022/12/25 09:11:26;;;;;;;35.10;24.10;;;;;;;5.72;100.00;99542.68;106063;1288;59093;-70
2022/12/25 09:13:52;;;;;;;36.50;25.40;;;;;;;5.80;100.00;99539.23;106060;1288;59357;-72
2022/12/25 09:16:20;;;;;;;36.30;25.30;;;;;;;5.87;100.00;99540.20;106059;1288;58978;-70
2022/12/25 09:18:47;;;;;;;32.40;21.40;;;;;;;5.93;100.00;99536.27;106070;1282;58970;-70
2022/12/25 09:21:15;;;;;;;31.00;22.50;;;;;;;5.99;100.00;99533.21;106030;1284;59259;-70
2022/12/25 09:23:41;;;;;;;30.40;21.60;;;;;;;6.06;100.00;99533.30;106060;1288;59870;-71
2022/12/25 09:26:18;;;;;;;30.40;19.70;;;;;;;6.13;100.00;99535.30;106040;1288;59236;-71
2022/12/25 09:28:44;;;;;;;29.20;18.00;;;;;;;6.21;100.00;99539.91;105764;1291;58961;-70
2022/12/25 09:31:11;;;;;;;27.10;18.50;;;;;;;6.27;100.00;99542.51;106060;1281;59145;-69
2022/12/25 09:33:37;;;;;;;35.40;19.90;;;;;;;6.34;100.00;99540.27;106060;1288;59585;-70
2022/12/25 09:36:07;;;;;;;36.00;19.10;;;;;;;6.43;100.00;99541.17;106077;1289;59116;-71
2022/12/25 09:38:34;;;;;;;32.20;18.80;;;;;;;6.50;100.00;99540.50;106056;1288;64017;-71
2022/12/25 09:41:06;;;;;;;32.20;17.70;;;;;;;6.57;100.00;99537.20;106093;1287;58976;-71
2022/12/25 09:43:38;;;;;;;28.10;17.60;;;;;;;6.64;100.00;99535.69;106086;1281;58952;-71
2022/12/25 09:46:14;;;;;;;25.70;15.50;;;;;;;6.70;100.00;99537.71;106094;1288;67081;-71
2022/12/25 09:49:01;;;;;;;23.10;14.90;;;;;;;6.77;100.00;99539.38;106091;1280;61529;-70
2022/12/25 09:51:29;;;;;;;22.70;14.60;;;;;;;6.83;100.00;99540.88;106057;1288;63967;-70
2022/12/25 09:54:05;;;;;;;24.10;13.80;;;;;;;6.90;100.00;99544.10;106054;1287;58957;-71
2022/12/25 09:56:32;;;;;;;24.80;14.20;;;;;;;6.98;100.00;99550.85;106079;1294;58944;-70
2022/12/25 09:58:58;;;;;;;20.80;12.80;;;;;;;7.05;100.00;99558.65;106069;1287;67020;-72
2022/12/25 10:01:34;;;;;;;17.40;11.60;;;;;;;7.14;100.00;99558.46;106094;1289;58943;-70
2022/12/25 10:04:12;;;;;;;19.30;12.30;;;;;;;7.20;100.00;99554.48;105988;1292;65070;-70
2022/12/25 10:07:12;;;;;;;17.40;11.70;;;;;;;7.27;100.00;99555.59;105734;1294;58997;-70
2022/12/25 10:10:06;;;;;;;19.10;11.90;;;;;;;7.36;100.00;99549.52;105547;1296;58959;-70
2022/12/25 10:12:48;;;;;;;17.30;11.20;;;;;;;7.47;100.00;99553.80;105556;1294;66084;-70
2022/12/25 10:15:34;;;;;;;19.80;11.10;;;;;;;7.57;100.00;99553.86;105541;1298;60834;-70
2022/12/25 10:18:38;;;;;;;19.50;12.30;;;;;;;7.67;100.00;99551.30;105550;1297;63952;-70
2022/12/25 10:21:11;;;;;;;19.60;10.60;;;;;;;7.76;100.00;99547.34;105545;1293;58962;-70
2022/12/25 10:23:43;;;;;;;14.50;10.30;;;;;;;7.82;100.00;99546.14;105546;1301;59568;-71
2022/12/25 10:26:19;;;;;;;15.30;10.10;;;;;;;7.87;100.00;99541.52;105545;1295;66971;-71
2022/12/25 10:28:57;;;;;;;15.80;9.90;;;;;;;7.93;100.00;99541.23;105544;1294;59952;-71
2022/12/25 10:31:26;;;;;;;15.90;10.80;;;;;;;7.99;100.00;99541.12;105526;1290;63958;-71
2022/12/25 10:33:53;;;;;;;15.60;9.40;;;;;;;8.06;100.00;99533.52;105286;1301;59052;-70
2022/12/25 10:36:22;;;;;;;17.90;10.10;;;;;;;8.11;100.00;99530.61;105549;1297;59389;-70
2022/12/25 10:38:48;;;;;;;15.80;8.90;;;;;;;8.19;100.00;99533.99;105396;1284;65801;-70
2022/12/25 10:41:33;;;;;;;15.30;9.50;;;;;;;8.26;100.00;99533.65;105538;1290;58940;-71
2022/12/25 10:43:59;;;;;;;16.80;9.70;;;;;;;8.33;100.00;99524.95;105537;1298;64942;-71
2022/12/25 10:46:28;;;;;;;12.50;8.50;;;;;;;8.40;100.00;99519.17;105645;1294;59069;-71
2022/12/25 10:49:01;;;;;;;15.00;9.40;;;;;;;8.46;100.00;99518.00;105709;1287;59062;-71
2022/12/25 10:51:37;;;;;;;16.20;9.30;;;;;;;8.51;100.00;99514.70;105697;1293;66007;-71
2022/12/25 10:54:24;;;;;;;15.20;9.40;;;;;;;8.58;100.00;99513.14;106046;1290;69153;-72
2022/12/25 10:57:03;;;;;;;14.30;9.10;;;;;;;8.63;100.00;99508.31;106052;1289;63763;-70
2022/12/25 10:59:40;;;;;;;14.80;9.20;;;;;;;8.65;100.00;99502.15;106063;1288;58938;-70
2022/12/25 11:02:23;;;;;;;11.20;8.20;;;;;;;8.68;100.00;99499.17;106055;1289;59156;-70
2022/12/25 11:04:56;;;;;;;14.70;8.60;;;;;;;8.71;100.00;99498.11;106071;1287;66882;-70
2022/12/25 11:07:25;;;;;;;14.00;8.50;;;;;;;8.74;100.00;99494.95;106068;1288;59839;-70
2022/12/25 11:10:01;;;;;;;15.60;9.80;;;;;;;8.77;100.00;99489.49;105748;1288;62585;-71
2022/12/25 11:12:53;;;;;;;11.80;8.80;;;;;;;8.80;100.00;99485.81;106063;1275;59136;-70
2022/12/25 11:15:37;;;;;;;14.20;9.30;;;;;;;8.81;100.00;99484.70;106052;1288;58905;-71
2022/12/25 11:18:18;;;;;;;16.30;9.20;;;;;;;8.83;100.00;99482.12;106056;1288;65874;-70
2022/12/25 11:20:48;;;;;;;15.00;8.70;;;;;;;8.86;100.00;99486.01;106060;1288;60905;-71
2022/12/25 11:23:19;;;;;;;17.10;9.00;;;;;;;8.90;100.00;99486.66;105641;1300;65698;-71
2022/12/25 11:26:01;;;;;;;15.10;8.60;;;;;;;8.94;100.00;99486.48;106056;1287;58950;-71
2022/12/25 11:28:32;;;;;;;12.50;8.30;;;;;;;8.94;100.00;99486.10;106027;1291;58876;-70
2022/12/25 11:31:04;;;;;;;12.30;8.10;;;;;;;8.94;100.00;99491.27;106076;1287;66926;-70
2022/12/25 11:33:37;;;;;;;11.20;6.60;;;;;;;8.94;100.00;99493.55;106146;1288;59651;-70
2022/12/25 11:36:16;;;;;;;12.10;7.90;;;;;;;8.93;100.00;99495.23;106142;1288;64652;-69
2022/12/25 11:38:43;;;;;;;13.60;8.60;;;;;;;8.91;100.00;99494.09;105859;1287;58861;-71
2022/12/25 11:41:17;;;;;;;13.30;8.10;;;;;;;8.91;100.00;99487.86;106025;1288;59029;-71
2022/12/25 11:43:53;;;;;;;12.30;8.10;;;;;;;8.92;100.00;99479.13;106033;1287;67183;-70
2022/12/25 11:46:26;;;;;;;13.60;8.30;;;;;;;8.94;100.00;99468.39;106048;1288;59674;-71
2022/12/25 11:48:59;;;;;;;26.00;14.20;;;;;;;8.95;100.00;99472.59;105989;1297;65032;-70
2022/12/25 11:51:31;;;;;;;29.70;14.50;;;;;;;8.94;100.00;99469.45;106028;1289;59163;-71
2022/12/25 11:54:06;;;;;;;39.60;19.90;;;;;;;8.94;100.00;99463.59;105925;1298;59786;-71
2022/12/25 11:56:36;;;;;;;29.20;15.10;;;;;;;8.94;100.00;99457.57;106076;1289;66831;-70
2022/12/25 11:59:19;;;;;;;36.10;17.70;;;;;;;8.91;100.00;99459.34;106057;1289;60977;-71
2022/12/25 12:01:55;;;;;;;29.40;15.50;;;;;;;8.90;100.00;99462.77;105807;1288;64438;-71
2022/12/25 12:04:31;;;;;;;36.20;22.30;;;;;;;8.88;100.00;99472.06;106055;1287;58984;-71
2022/12/25 12:07:22;;;;;;;18.70;12.80;;;;;;;8.86;100.00;99472.55;106054;1288;58938;-71
2022/12/25 12:10:00;;;;;;;12.60;9.60;;;;;;;8.85;100.00;99474.90;106056;1289;66978;-71
2022/12/25 12:12:39;;;;;;;14.10;9.50;;;;;;;8.85;100.00;99471.71;106064;1287;59835;-71
2022/12/25 12:15:20;;;;;;;14.50;8.70;;;;;;;8.85;100.00;99461.61;106075;1289;64221;-71
2022/12/25 12:17:47;;;;;;;13.40;8.10;;;;;;;8.85;100.00;99456.84;106050;1288;58990;-71
2022/12/25 12:20:33;;;;;;;13.50;8.10;;;;;;;8.85;100.00;99456.84;106048;1289;58868;-71
2022/12/25 12:23:03;;;;;;;14.50;9.20;;;;;;;8.85;100.00;99457.72;105687;1289;66306;-71
2022/12/25 12:25:30;;;;;;;13.70;8.00;;;;;;;8.85;100.00;99454.33;106015;1284;60971;-71
2022/12/25 12:27:59;;;;;;;14.00;8.60;;;;;;;8.86;100.00;99452.00;106056;1289;64839;-70
2022/12/25 12:30:34;;;;;;;14.30;7.70;;;;;;;8.86;100.00;99450.23;106058;1295;59265;-71
2022/12/25 12:33:04;;;;;;;15.30;8.60;;;;;;;8.85;100.00;99451.72;106080;1279;58763;-71
2022/12/25 12:35:37;;;;;;;14.90;8.80;;;;;;;8.84;100.00;99451.92;106058;1287;65915;-71
2022/12/25 12:38:14;;;;;;;12.60;8.40;;;;;;;8.83;100.00;99450.95;105711;1300;60882;-70
2022/12/25 12:40:52;;;;;;;14.30;7.90;;;;;;;8.79;100.00;99451.98;106001;1287;64000;-70
2022/12/25 12:43:31;;;;;;;12.80;8.50;;;;;;;8.77;100.00;99456.16;106067;1295;58868;-70
2022/12/25 12:46:04;;;;;;;11.90;7.30;;;;;;;8.76;100.00;99448.58;106088;1289;58944;-71
2022/12/25 12:48:37;;;;;;;14.40;7.40;;;;;;;8.75;100.00;99446.69;106067;1290;65939;-71
2022/12/25 12:51:06;;;;;;;14.20;9.80;;;;;;;8.75;100.00;99450.98;105690;1301;61118;-70
2022/12/25 12:53:33;;;;;;;14.60;7.90;;;;;;;8.74;100.00;99448.00;106010;1290;64976;-70
2022/12/25 12:56:09;;;;;;;12.10;8.00;;;;;;;8.73;100.00;99444.14;106069;1289;58918;-70
2022/12/25 12:58:39;;;;;;;13.40;8.50;;;;;;;8.72;100.00;99435.91;106060;1287;58927;-71
2022/12/25 13:01:26;;;;;;;15.40;8.30;;;;;;;8.69;100.00;99429.83;106071;1288;65809;-70
2022/12/25 13:04:14;;;;;;;19.80;9.00;;;;;;;8.67;100.00;99434.04;106048;1288;60781;-72
2022/12/25 13:06:46;;;;;;;11.30;8.10;;;;;;;8.64;100.00;99443.23;106055;1298;65170;-70
2022/12/25 13:09:27;;;;;;;13.40;8.40;;;;;;;8.61;100.00;99444.98;106072;1295;59170;-70
2022/12/25 13:11:53;;;;;;;13.00;7.30;;;;;;;8.57;100.00;99447.45;106070;1289;59274;-70